Qingdao, China
Current Conditions -  °F | °C
As of 1:00 AM on Wednesday 22 Oct 2014 (Local Time) from ZSQD Reporting Station
Clear Clear  
Wind Chill: 48°   Ceiling: Unl
Heat Index: 48°   Visibility: 6mi
Dew Point: 45°   Wind: 2mph
Humidity: 87%   Direction: 330°NNW
Pressure: 30.18"   Gusts: NA
Location:  36.07°N, 120.32°E
Report Text: ZSQD 211700Z 33001MPS CAVOK 09/07 Q1022 NOSIG
Loading
Personal Weather Stations






























Interactive Weather Map
Tropical Storm Tracking
New forecast layout! Learn more

10-Day Weather Forecast

Advertisements
Track Severe Weather on mobile